Terminal Aerodrome Forecast
Issued by NWS

Home | Current Version | Previous Version | Text Only | Print | Product List | Glossary On
Versions: 1 2 3 4 5 6 7 8 9 10 11 12 13 14 15 16 17 18
000
FTUS43 KEAX 221200 AAA
TAFMKC
TAF AMD
KMKC 221238Z 2213/2312 21004KT 1 1/2SM BR OVC005
     FM221500 19005KT 4SM -DZ BR OVC007
     FM221800 19010KT P6SM VCSH OVC018
     FM230200 17010KT 6SM -RA BR OVC010=

USA.gov is the U.S. government's official web portal to all federal, state and local government web resources and services.